sensor_id;sensor_type;location;lat;lon;timestamp;P1;durP1;ratioP1;P2;durP2;ratioP2
48052;SDS011;33824;51.600;5.718;2023-07-31T00:00:05;17.35;;;4.97;;
48052;SDS011;33824;51.600;5.718;2023-07-31T00:02:31;16.92;;;5.18;;
48052;SDS011;33824;51.600;5.718;2023-07-31T00:04:56;16.90;;;5.47;;
48052;SDS011;33824;51.600;5.718;2023-07-31T00:07:22;11.43;;;4.97;;
48052;SDS011;33824;51.600;5.718;2023-07-31T00:09:47;24.15;;;5.40;;
48052;SDS011;33824;51.600;5.718;2023-07-31T00:12:13;14.75;;;5.03;;
48052;SDS011;33824;51.600;5.718;2023-07-31T00:14:38;19.05;;;4.65;;
48052;SDS011;33824;51.600;5.718;2023-07-31T00:17:04;17.45;;;4.90;;
48052;SDS011;33824;51.600;5.718;2023-07-31T00:19:30;23.92;;;4.72;;
48052;SDS011;33824;51.600;5.718;2023-07-31T00:21:55;12.30;;;4.25;;
48052;SDS011;33824;51.600;5.718;2023-07-31T00:24:21;16.35;;;4.60;;
48052;SDS011;33824;51.600;5.718;2023-07-31T00:26:46;17.27;;;4.90;;
48052;SDS011;33824;51.600;5.718;2023-07-31T00:29:12;14.23;;;4.68;;
48052;SDS011;33824;51.600;5.718;2023-07-31T00:31:37;15.82;;;4.25;;
48052;SDS011;33824;51.600;5.718;2023-07-31T00:34:03;18.70;;;3.83;;
48052;SDS011;33824;51.600;5.718;2023-07-31T00:36:28;14.88;;;3.92;;
48052;SDS011;33824;51.600;5.718;2023-07-31T00:38:54;15.85;;;4.65;;
48052;SDS011;33824;51.600;5.718;2023-07-31T00:41:19;12.93;;;3.72;;
48052;SDS011;33824;51.600;5.718;2023-07-31T00:43:45;11.55;;;3.88;;
48052;SDS011;33824;51.600;5.718;2023-07-31T00:46:10;13.00;;;3.63;;
48052;SDS011;33824;51.600;5.718;2023-07-31T00:48:37;10.30;;;3.13;;
48052;SDS011;33824;51.600;5.718;2023-07-31T00:51:04;11.18;;;3.67;;
48052;SDS011;33824;51.600;5.718;2023-07-31T00:53:30;10.45;;;3.72;;
48052;SDS011;33824;51.600;5.718;2023-07-31T00:55:55;19.70;;;3.65;;
48052;SDS011;33824;51.600;5.718;2023-07-31T00:58:21;15.45;;;4.38;;
48052;SDS011;33824;51.600;5.718;2023-07-31T01:00:46;17.30;;;3.53;;
48052;SDS011;33824;51.600;5.718;2023-07-31T01:03:12;14.23;;;3.65;;
48052;SDS011;33824;51.600;5.718;2023-07-31T01:11:27;11.73;;;3.58;;
48052;SDS011;33824;51.600;5.718;2023-07-31T01:13:55;9.25;;;2.95;;
48052;SDS011;33824;51.600;5.718;2023-07-31T01:16:22;12.40;;;3.58;;
48052;SDS011;33824;51.600;5.718;2023-07-31T01:18:47;15.77;;;3.90;;
48052;SDS011;33824;51.600;5.718;2023-07-31T01:23:51;14.32;;;3.00;;
48052;SDS011;33824;51.600;5.718;2023-07-31T01:26:27;11.65;;;2.90;;
48052;SDS011;33824;51.600;5.718;2023-07-31T01:29:20;15.07;;;3.35;;
48052;SDS011;33824;51.600;5.718;2023-07-31T01:31:52;13.50;;;3.58;;
48052;SDS011;33824;51.600;5.718;2023-07-31T01:34:20;10.13;;;2.80;;
48052;SDS011;33824;51.600;5.718;2023-07-31T01:36:47;14.65;;;3.97;;
48052;SDS011;33824;51.600;5.718;2023-07-31T01:39:13;9.18;;;2.83;;
48052;SDS011;33824;51.600;5.718;2023-07-31T01:41:40;13.18;;;3.20;;
48052;SDS011;33824;51.600;5.718;2023-07-31T01:44:06;14.88;;;3.70;;
48052;SDS011;33824;51.600;5.718;2023-07-31T01:46:31;11.02;;;3.75;;
48052;SDS011;33824;51.600;5.718;2023-07-31T01:48:57;9.15;;;3.88;;
48052;SDS011;33824;51.600;5.718;2023-07-31T01:51:22;15.00;;;3.45;;
48052;SDS011;33824;51.600;5.718;2023-07-31T01:53:48;13.35;;;3.83;;
48052;SDS011;33824;51.600;5.718;2023-07-31T01:56:13;9.90;;;3.17;;
48052;SDS011;33824;51.600;5.718;2023-07-31T01:58:39;10.63;;;3.17;;
48052;SDS011;33824;51.600;5.718;2023-07-31T02:01:05;9.60;;;3.22;;
48052;SDS011;33824;51.600;5.718;2023-07-31T02:03:30;23.27;;;3.90;;
48052;SDS011;33824;51.600;5.718;2023-07-31T02:05:56;11.45;;;3.25;;
48052;SDS011;33824;51.600;5.718;2023-07-31T02:08:22;18.15;;;3.50;;
48052;SDS011;33824;51.600;5.718;2023-07-31T02:10:47;8.93;;;3.15;;
48052;SDS011;33824;51.600;5.718;2023-07-31T02:13:13;13.45;;;3.10;;
48052;SDS011;33824;51.600;5.718;2023-07-31T02:15:38;9.85;;;3.03;;
48052;SDS011;33824;51.600;5.718;2023-07-31T02:18:04;14.82;;;2.92;;
48052;SDS011;33824;51.600;5.718;2023-07-31T02:20:29;18.65;;;3.92;;
48052;SDS011;33824;51.600;5.718;2023-07-31T02:22:55;10.45;;;3.40;;
48052;SDS011;33824;51.600;5.718;2023-07-31T02:25:20;10.30;;;3.53;;
48052;SDS011;33824;51.600;5.718;2023-07-31T02:27:46;8.82;;;2.90;;
48052;SDS011;33824;51.600;5.718;2023-07-31T02:30:11;14.65;;;3.78;;
48052;SDS011;33824;51.600;5.718;2023-07-31T02:32:37;9.40;;;2.90;;
48052;SDS011;33824;51.600;5.718;2023-07-31T02:35:02;13.80;;;2.95;;
48052;SDS011;33824;51.600;5.718;2023-07-31T02:37:28;16.70;;;4.20;;
48052;SDS011;33824;51.600;5.718;2023-07-31T02:39:54;9.10;;;3.17;;
48052;SDS011;33824;51.600;5.718;2023-07-31T02:42:20;11.25;;;3.35;;
48052;SDS011;33824;51.600;5.718;2023-07-31T02:44:46;8.68;;;3.75;;
48052;SDS011;33824;51.600;5.718;2023-07-31T02:47:11;9.88;;;3.15;;
48052;SDS011;33824;51.600;5.718;2023-07-31T02:49:37;9.68;;;3.13;;
48052;SDS011;33824;51.600;5.718;2023-07-31T02:52:03;10.75;;;3.10;;
48052;SDS011;33824;51.600;5.718;2023-07-31T02:54:28;5.88;;;2.30;;
48052;SDS011;33824;51.600;5.718;2023-07-31T02:56:54;13.73;;;3.28;;
48052;SDS011;33824;51.600;5.718;2023-07-31T02:59:19;17.73;;;3.83;;
48052;SDS011;33824;51.600;5.718;2023-07-31T03:01:45;12.32;;;3.90;;
48052;SDS011;33824;51.600;5.718;2023-07-31T03:04:11;10.32;;;3.47;;
48052;SDS011;33824;51.600;5.718;2023-07-31T03:06:36;12.65;;;3.65;;
48052;SDS011;33824;51.600;5.718;2023-07-31T03:09:02;16.52;;;3.60;;
48052;SDS011;33824;51.600;5.718;2023-07-31T03:11:27;14.50;;;3.28;;
48052;SDS011;33824;51.600;5.718;2023-07-31T03:13:53;10.65;;;3.22;;
48052;SDS011;33824;51.600;5.718;2023-07-31T03:16:19;11.85;;;3.30;;
48052;SDS011;33824;51.600;5.718;2023-07-31T03:18:44;9.65;;;3.25;;
48052;SDS011;33824;51.600;5.718;2023-07-31T03:21:10;11.63;;;3.53;;
48052;SDS011;33824;51.600;5.718;2023-07-31T03:23:35;12.93;;;3.40;;
48052;SDS011;33824;51.600;5.718;2023-07-31T03:26:01;10.20;;;3.10;;
48052;SDS011;33824;51.600;5.718;2023-07-31T03:28:28;9.45;;;3.03;;
48052;SDS011;33824;51.600;5.718;2023-07-31T03:30:55;16.20;;;2.83;;
48052;SDS011;33824;51.600;5.718;2023-07-31T03:33:20;14.30;;;3.17;;
48052;SDS011;33824;51.600;5.718;2023-07-31T03:35:46;7.72;;;2.85;;
48052;SDS011;33824;51.600;5.718;2023-07-31T03:38:12;11.23;;;3.40;;
48052;SDS011;33824;51.600;5.718;2023-07-31T03:40:37;12.88;;;4.10;;
48052;SDS011;33824;51.600;5.718;2023-07-31T03:43:03;12.43;;;3.17;;
48052;SDS011;33824;51.600;5.718;2023-07-31T03:45:28;10.48;;;3.25;;
48052;SDS011;33824;51.600;5.718;2023-07-31T03:47:54;9.55;;;3.05;;
48052;SDS011;33824;51.600;5.718;2023-07-31T03:50:20;13.23;;;3.22;;
48052;SDS011;33824;51.600;5.718;2023-07-31T03:52:45;18.42;;;4.00;;
48052;SDS011;33824;51.600;5.718;2023-07-31T03:55:11;10.25;;;3.45;;
48052;SDS011;33824;51.600;5.718;2023-07-31T03:57:37;7.35;;;2.90;;
48052;SDS011;33824;51.600;5.718;2023-07-31T04:00:02;15.25;;;3.75;;
48052;SDS011;33824;51.600;5.718;2023-07-31T04:02:28;10.50;;;3.45;;
48052;SDS011;33824;51.600;5.718;2023-07-31T04:04:54;13.13;;;2.67;;
48052;SDS011;33824;51.600;5.718;2023-07-31T04:07:19;9.60;;;3.65;;
48052;SDS011;33824;51.600;5.718;2023-07-31T04:09:45;22.95;;;3.17;;
48052;SDS011;33824;51.600;5.718;2023-07-31T04:12:11;8.18;;;2.95;;
48052;SDS011;33824;51.600;5.718;2023-07-31T04:14:36;10.52;;;3.08;;
48052;SDS011;33824;51.600;5.718;2023-07-31T04:17:02;12.38;;;2.80;;
48052;SDS011;33824;51.600;5.718;2023-07-31T04:19:27;9.63;;;2.75;;
48052;SDS011;33824;51.600;5.718;2023-07-31T04:21:53;11.55;;;2.95;;
48052;SDS011;33824;51.600;5.718;2023-07-31T04:24:18;15.63;;;2.53;;
48052;SDS011;33824;51.600;5.718;2023-07-31T04:26:49;11.32;;;2.30;;
48052;SDS011;33824;51.600;5.718;2023-07-31T04:29:15;7.45;;;2.55;;
48052;SDS011;33824;51.600;5.718;2023-07-31T04:31:41;9.90;;;2.60;;
48052;SDS011;33824;51.600;5.718;2023-07-31T04:34:07;7.05;;;2.53;;
48052;SDS011;33824;51.600;5.718;2023-07-31T04:36:33;18.42;;;2.85;;
48052;SDS011;33824;51.600;5.718;2023-07-31T04:38:59;11.88;;;2.70;;
48052;SDS011;33824;51.600;5.718;2023-07-31T04:41:25;11.70;;;2.53;;
48052;SDS011;33824;51.600;5.718;2023-07-31T04:43:50;8.45;;;2.00;;
48052;SDS011;33824;51.600;5.718;2023-07-31T04:46:16;9.40;;;2.72;;
48052;SDS011;33824;51.600;5.718;2023-07-31T04:48:42;5.22;;;2.10;;
48052;SDS011;33824;51.600;5.718;2023-07-31T04:51:09;8.25;;;2.45;;
48052;SDS011;33824;51.600;5.718;2023-07-31T04:53:35;7.10;;;2.40;;
48052;SDS011;33824;51.600;5.718;2023-07-31T04:56:00;8.10;;;1.98;;
48052;SDS011;33824;51.600;5.718;2023-07-31T04:58:26;9.90;;;2.75;;
48052;SDS011;33824;51.600;5.718;2023-07-31T05:00:52;10.25;;;2.65;;
48052;SDS011;33824;51.600;5.718;2023-07-31T05:03:17;6.63;;;2.58;;
48052;SDS011;33824;51.600;5.718;2023-07-31T05:05:43;10.05;;;2.92;;
48052;SDS011;33824;51.600;5.718;2023-07-31T05:08:08;12.07;;;2.75;;
48052;SDS011;33824;51.600;5.718;2023-07-31T05:10:34;7.97;;;2.70;;
48052;SDS011;33824;51.600;5.718;2023-07-31T05:12:59;12.63;;;2.65;;
48052;SDS011;33824;51.600;5.718;2023-07-31T05:15:25;13.75;;;3.00;;
48052;SDS011;33824;51.600;5.718;2023-07-31T05:17:50;13.23;;;2.45;;
48052;SDS011;33824;51.600;5.718;2023-07-31T05:20:16;8.20;;;2.20;;
48052;SDS011;33824;51.600;5.718;2023-07-31T05:22:42;9.27;;;2.95;;
48052;SDS011;33824;51.600;5.718;2023-07-31T05:25:07;15.02;;;3.40;;
48052;SDS011;33824;51.600;5.718;2023-07-31T05:27:33;13.75;;;3.33;;
48052;SDS011;33824;51.600;5.718;2023-07-31T05:29:58;12.38;;;2.85;;
48052;SDS011;33824;51.600;5.718;2023-07-31T05:32:24;12.30;;;3.38;;
48052;SDS011;33824;51.600;5.718;2023-07-31T05:34:53;8.32;;;2.88;;
48052;SDS011;33824;51.600;5.718;2023-07-31T05:37:19;12.30;;;3.30;;
48052;SDS011;33824;51.600;5.718;2023-07-31T05:39:44;11.50;;;2.72;;
48052;SDS011;33824;51.600;5.718;2023-07-31T05:42:10;15.25;;;3.30;;
48052;SDS011;33824;51.600;5.718;2023-07-31T05:44:35;10.38;;;3.33;;
48052;SDS011;33824;51.600;5.718;2023-07-31T05:47:01;7.40;;;3.38;;
48052;SDS011;33824;51.600;5.718;2023-07-31T05:49:26;6.72;;;2.55;;
48052;SDS011;33824;51.600;5.718;2023-07-31T05:51:52;10.55;;;2.47;;
48052;SDS011;33824;51.600;5.718;2023-07-31T05:54:17;9.32;;;2.50;;
48052;SDS011;33824;51.600;5.718;2023-07-31T05:56:43;7.40;;;2.80;;
48052;SDS011;33824;51.600;5.718;2023-07-31T05:59:09;8.55;;;2.47;;
48052;SDS011;33824;51.600;5.718;2023-07-31T06:01:37;6.13;;;2.20;;
48052;SDS011;33824;51.600;5.718;2023-07-31T06:04:03;7.15;;;2.88;;
48052;SDS011;33824;51.600;5.718;2023-07-31T06:06:28;11.98;;;2.60;;
48052;SDS011;33824;51.600;5.718;2023-07-31T06:08:54;6.13;;;2.97;;
48052;SDS011;33824;51.600;5.718;2023-07-31T06:11:20;7.03;;;2.00;;
48052;SDS011;33824;51.600;5.718;2023-07-31T06:13:45;4.13;;;1.90;;
48052;SDS011;33824;51.600;5.718;2023-07-31T06:16:13;4.95;;;1.88;;
48052;SDS011;33824;51.600;5.718;2023-07-31T06:18:39;7.85;;;2.40;;
48052;SDS011;33824;51.600;5.718;2023-07-31T06:21:05;4.00;;;1.52;;
48052;SDS011;33824;51.600;5.718;2023-07-31T06:23:30;4.13;;;1.70;;
48052;SDS011;33824;51.600;5.718;2023-07-31T06:25:56;4.03;;;1.80;;
48052;SDS011;33824;51.600;5.718;2023-07-31T06:28:23;7.25;;;1.60;;
48052;SDS011;33824;51.600;5.718;2023-07-31T06:30:53;2.83;;;1.27;;
48052;SDS011;33824;51.600;5.718;2023-07-31T06:33:18;2.72;;;1.65;;
48052;SDS011;33824;51.600;5.718;2023-07-31T06:35:44;4.43;;;1.60;;
48052;SDS011;33824;51.600;5.718;2023-07-31T06:38:10;3.90;;;1.90;;
48052;SDS011;33824;51.600;5.718;2023-07-31T06:40:36;4.90;;;1.40;;
48052;SDS011;33824;51.600;5.718;2023-07-31T06:43:01;3.20;;;1.90;;
48052;SDS011;33824;51.600;5.718;2023-07-31T06:45:36;5.97;;;1.70;;
48052;SDS011;33824;51.600;5.718;2023-07-31T06:48:03;6.97;;;2.35;;
48052;SDS011;33824;51.600;5.718;2023-07-31T06:50:29;2.05;;;1.30;;
48052;SDS011;33824;51.600;5.718;2023-07-31T06:52:56;4.20;;;1.73;;
48052;SDS011;33824;51.600;5.718;2023-07-31T06:55:22;3.35;;;1.70;;
48052;SDS011;33824;51.600;5.718;2023-07-31T06:57:49;3.63;;;2.03;;
48052;SDS011;33824;51.600;5.718;2023-07-31T07:00:16;2.92;;;1.58;;
48052;SDS011;33824;51.600;5.718;2023-07-31T07:02:42;4.20;;;1.77;;
48052;SDS011;33824;51.600;5.718;2023-07-31T07:05:08;3.22;;;1.60;;
48052;SDS011;33824;51.600;5.718;2023-07-31T07:07:34;5.20;;;1.85;;
48052;SDS011;33824;51.600;5.718;2023-07-31T07:10:00;3.05;;;1.85;;
48052;SDS011;33824;51.600;5.718;2023-07-31T07:12:29;5.40;;;1.70;;
48052;SDS011;33824;51.600;5.718;2023-07-31T07:14:56;4.80;;;1.55;;
48052;SDS011;33824;51.600;5.718;2023-07-31T07:17:23;4.40;;;1.70;;
48052;SDS011;33824;51.600;5.718;2023-07-31T07:19:49;3.78;;;1.92;;
48052;SDS011;33824;51.600;5.718;2023-07-31T07:22:14;2.58;;;1.75;;
48052;SDS011;33824;51.600;5.718;2023-07-31T07:24:40;3.20;;;1.52;;
48052;SDS011;33824;51.600;5.718;2023-07-31T07:27:06;9.20;;;1.58;;
48052;SDS011;33824;51.600;5.718;2023-07-31T07:29:31;3.83;;;1.50;;
48052;SDS011;33824;51.600;5.718;2023-07-31T07:31:59;2.55;;;1.30;;
48052;SDS011;33824;51.600;5.718;2023-07-31T07:34:25;2.95;;;1.38;;
48052;SDS011;33824;51.600;5.718;2023-07-31T07:36:52;3.58;;;1.50;;
48052;SDS011;33824;51.600;5.718;2023-07-31T07:39:17;3.03;;;1.63;;
48052;SDS011;33824;51.600;5.718;2023-07-31T07:41:43;3.17;;;1.30;;
48052;SDS011;33824;51.600;5.718;2023-07-31T07:44:08;1.50;;;1.20;;
48052;SDS011;33824;51.600;5.718;2023-07-31T07:46:34;4.82;;;1.65;;
48052;SDS011;33824;51.600;5.718;2023-07-31T07:49:00;5.13;;;1.70;;
48052;SDS011;33824;51.600;5.718;2023-07-31T07:51:25;1.63;;;1.05;;
48052;SDS011;33824;51.600;5.718;2023-07-31T07:53:51;2.50;;;1.20;;
48052;SDS011;33824;51.600;5.718;2023-07-31T07:56:16;1.70;;;0.98;;
48052;SDS011;33824;51.600;5.718;2023-07-31T07:58:42;2.70;;;1.13;;
48052;SDS011;33824;51.600;5.718;2023-07-31T08:01:07;5.10;;;1.10;;
48052;SDS011;33824;51.600;5.718;2023-07-31T08:03:33;3.72;;;1.95;;
48052;SDS011;33824;51.600;5.718;2023-07-31T08:05:59;4.13;;;1.77;;
48052;SDS011;33824;51.600;5.718;2023-07-31T08:08:25;5.82;;;1.52;;
48052;SDS011;33824;51.600;5.718;2023-07-31T08:10:51;3.10;;;1.85;;
48052;SDS011;33824;51.600;5.718;2023-07-31T08:13:16;2.05;;;1.10;;
48052;SDS011;33824;51.600;5.718;2023-07-31T08:15:42;4.70;;;1.95;;
48052;SDS011;33824;51.600;5.718;2023-07-31T08:18:08;2.55;;;1.38;;
48052;SDS011;33824;51.600;5.718;2023-07-31T08:20:34;4.53;;;1.70;;
48052;SDS011;33824;51.600;5.718;2023-07-31T08:22:59;4.72;;;1.70;;
48052;SDS011;33824;51.600;5.718;2023-07-31T08:25:25;4.93;;;1.50;;
48052;SDS011;33824;51.600;5.718;2023-07-31T08:27:50;2.38;;;1.48;;
48052;SDS011;33824;51.600;5.718;2023-07-31T08:30:18;3.97;;;1.58;;
48052;SDS011;33824;51.600;5.718;2023-07-31T08:32:44;2.30;;;1.40;;
48052;SDS011;33824;51.600;5.718;2023-07-31T08:35:10;3.70;;;1.65;;
48052;SDS011;33824;51.600;5.718;2023-07-31T08:37:35;3.33;;;1.77;;
48052;SDS011;33824;51.600;5.718;2023-07-31T08:40:01;3.15;;;1.80;;
48052;SDS011;33824;51.600;5.718;2023-07-31T08:42:27;10.40;;;2.63;;
48052;SDS011;33824;51.600;5.718;2023-07-31T08:44:53;6.43;;;1.92;;
48052;SDS011;33824;51.600;5.718;2023-07-31T08:47:20;3.85;;;1.77;;
48052;SDS011;33824;51.600;5.718;2023-07-31T08:49:47;3.50;;;1.85;;
48052;SDS011;33824;51.600;5.718;2023-07-31T08:52:13;5.63;;;1.77;;
48052;SDS011;33824;51.600;5.718;2023-07-31T08:54:38;4.60;;;1.80;;
48052;SDS011;33824;51.600;5.718;2023-07-31T08:57:05;9.25;;;1.75;;
48052;SDS011;33824;51.600;5.718;2023-07-31T08:59:31;3.65;;;1.67;;
48052;SDS011;33824;51.600;5.718;2023-07-31T09:02:01;6.00;;;1.88;;
48052;SDS011;33824;51.600;5.718;2023-07-31T09:04:31;3.20;;;1.83;;
48052;SDS011;33824;51.600;5.718;2023-07-31T09:06:59;2.90;;;1.63;;
48052;SDS011;33824;51.600;5.718;2023-07-31T09:09:27;4.20;;;1.77;;
48052;SDS011;33824;51.600;5.718;2023-07-31T09:11:52;5.22;;;1.70;;
48052;SDS011;33824;51.600;5.718;2023-07-31T09:14:18;5.60;;;1.88;;
48052;SDS011;33824;51.600;5.718;2023-07-31T09:16:57;5.38;;;1.42;;
48052;SDS011;33824;51.600;5.718;2023-07-31T09:19:29;10.30;;;2.00;;
48052;SDS011;33824;51.600;5.718;2023-07-31T09:21:58;6.40;;;2.28;;
48052;SDS011;33824;51.600;5.718;2023-07-31T09:24:28;5.07;;;2.05;;
48052;SDS011;33824;51.600;5.718;2023-07-31T09:26:55;7.03;;;2.33;;
48052;SDS011;33824;51.600;5.718;2023-07-31T09:29:23;6.50;;;2.13;;
48052;SDS011;33824;51.600;5.718;2023-07-31T09:31:50;4.82;;;2.50;;
48052;SDS011;33824;51.600;5.718;2023-07-31T09:34:16;7.97;;;2.75;;
48052;SDS011;33824;51.600;5.718;2023-07-31T09:36:48;7.50;;;2.03;;
48052;SDS011;33824;51.600;5.718;2023-07-31T09:39:16;9.98;;;2.47;;
48052;SDS011;33824;51.600;5.718;2023-07-31T09:41:44;4.82;;;2.05;;
48052;SDS011;33824;51.600;5.718;2023-07-31T09:44:18;7.07;;;2.50;;
48052;SDS011;33824;51.600;5.718;2023-07-31T09:46:44;8.60;;;2.42;;
48052;SDS011;33824;51.600;5.718;2023-07-31T09:49:11;8.00;;;2.53;;
48052;SDS011;33824;51.600;5.718;2023-07-31T09:51:41;4.95;;;2.50;;
48052;SDS011;33824;51.600;5.718;2023-07-31T09:54:14;9.38;;;2.63;;
48052;SDS011;33824;51.600;5.718;2023-07-31T09:56:42;6.18;;;2.50;;
48052;SDS011;33824;51.600;5.718;2023-07-31T09:59:13;9.07;;;2.60;;
48052;SDS011;33824;51.600;5.718;2023-07-31T10:01:43;8.77;;;2.63;;
48052;SDS011;33824;51.600;5.718;2023-07-31T10:04:11;6.63;;;2.22;;
48052;SDS011;33824;51.600;5.718;2023-07-31T10:06:38;4.85;;;2.33;;
48052;SDS011;33824;51.600;5.718;2023-07-31T10:09:05;7.75;;;2.30;;
48052;SDS011;33824;51.600;5.718;2023-07-31T10:11:43;5.57;;;2.85;;
48052;SDS011;33824;51.600;5.718;2023-07-31T10:14:20;5.65;;;2.33;;
48052;SDS011;33824;51.600;5.718;2023-07-31T10:16:46;5.25;;;2.70;;
48052;SDS011;33824;51.600;5.718;2023-07-31T10:19:12;7.50;;;2.08;;
48052;SDS011;33824;51.600;5.718;2023-07-31T10:21:38;9.85;;;2.33;;
48052;SDS011;33824;51.600;5.718;2023-07-31T10:24:04;4.50;;;2.38;;
48052;SDS011;33824;51.600;5.718;2023-07-31T10:26:33;4.18;;;1.65;;
48052;SDS011;33824;51.600;5.718;2023-07-31T10:29:00;7.40;;;2.28;;
48052;SDS011;33824;51.600;5.718;2023-07-31T10:31:27;4.57;;;1.85;;
48052;SDS011;33824;51.600;5.718;2023-07-31T10:33:53;5.38;;;1.95;;
48052;SDS011;33824;51.600;5.718;2023-07-31T10:36:20;3.88;;;1.70;;
48052;SDS011;33824;51.600;5.718;2023-07-31T10:38:49;6.38;;;1.92;;
48052;SDS011;33824;51.600;5.718;2023-07-31T10:41:18;5.30;;;1.92;;
48052;SDS011;33824;51.600;5.718;2023-07-31T10:43:45;3.42;;;1.75;;
48052;SDS011;33824;51.600;5.718;2023-07-31T10:46:12;4.50;;;1.70;;
48052;SDS011;33824;51.600;5.718;2023-07-31T10:48:39;3.92;;;1.90;;
48052;SDS011;33824;51.600;5.718;2023-07-31T10:51:09;3.70;;;2.00;;
48052;SDS011;33824;51.600;5.718;2023-07-31T10:53:37;10.38;;;2.63;;
48052;SDS011;33824;51.600;5.718;2023-07-31T10:56:04;4.57;;;2.17;;
48052;SDS011;33824;51.600;5.718;2023-07-31T10:58:31;5.45;;;2.00;;
48052;SDS011;33824;51.600;5.718;2023-07-31T11:00:58;4.68;;;2.10;;
48052;SDS011;33824;51.600;5.718;2023-07-31T11:03:26;5.75;;;2.03;;
48052;SDS011;33824;51.600;5.718;2023-07-31T11:06:05;4.10;;;1.80;;
48052;SDS011;33824;51.600;5.718;2023-07-31T11:08:31;4.07;;;1.80;;
48052;SDS011;33824;51.600;5.718;2023-07-31T11:13:26;6.05;;;2.13;;
48052;SDS011;33824;51.600;5.718;2023-07-31T11:15:52;4.45;;;1.73;;
48052;SDS011;33824;51.600;5.718;2023-07-31T11:18:18;5.28;;;2.00;;
48052;SDS011;33824;51.600;5.718;2023-07-31T11:20:43;6.75;;;2.67;;
48052;SDS011;33824;51.600;5.718;2023-07-31T11:23:10;4.68;;;1.90;;
48052;SDS011;33824;51.600;5.718;2023-07-31T11:25:35;4.72;;;1.85;;
48052;SDS011;33824;51.600;5.718;2023-07-31T11:28:03;3.53;;;2.03;;
48052;SDS011;33824;51.600;5.718;2023-07-31T11:30:32;4.03;;;1.88;;
48052;SDS011;33824;51.600;5.718;2023-07-31T11:32:59;4.38;;;1.88;;
48052;SDS011;33824;51.600;5.718;2023-07-31T11:35:25;3.42;;;1.80;;
48052;SDS011;33824;51.600;5.718;2023-07-31T11:37:51;3.83;;;1.80;;
48052;SDS011;33824;51.600;5.718;2023-07-31T11:40:17;5.28;;;1.95;;
48052;SDS011;33824;51.600;5.718;2023-07-31T11:42:43;5.88;;;2.55;;
48052;SDS011;33824;51.600;5.718;2023-07-31T11:45:09;7.40;;;2.05;;
48052;SDS011;33824;51.600;5.718;2023-07-31T11:47:35;3.53;;;1.88;;
48052;SDS011;33824;51.600;5.718;2023-07-31T11:50:03;5.70;;;1.85;;
48052;SDS011;33824;51.600;5.718;2023-07-31T11:52:30;2.75;;;1.52;;
48052;SDS011;33824;51.600;5.718;2023-07-31T11:54:57;6.85;;;2.20;;
48052;SDS011;33824;51.600;5.718;2023-07-31T11:57:24;6.05;;;2.20;;
48052;SDS011;33824;51.600;5.718;2023-07-31T11:59:51;3.83;;;1.77;;
48052;SDS011;33824;51.600;5.718;2023-07-31T12:02:17;5.20;;;2.10;;
48052;SDS011;33824;51.600;5.718;2023-07-31T12:04:43;7.45;;;1.80;;
48052;SDS011;33824;51.600;5.718;2023-07-31T12:07:10;3.60;;;1.67;;
48052;SDS011;33824;51.600;5.718;2023-07-31T12:09:37;6.30;;;1.88;;
48052;SDS011;33824;51.600;5.718;2023-07-31T12:12:03;6.03;;;1.52;;
48052;SDS011;33824;51.600;5.718;2023-07-31T12:14:33;2.47;;;1.50;;
48052;SDS011;33824;51.600;5.718;2023-07-31T12:17:00;10.48;;;1.90;;
48052;SDS011;33824;51.600;5.718;2023-07-31T12:19:29;3.13;;;1.23;;
48052;SDS011;33824;51.600;5.718;2023-07-31T12:21:58;4.68;;;1.55;;
48052;SDS011;33824;51.600;5.718;2023-07-31T12:24:28;3.42;;;1.40;;
48052;SDS011;33824;51.600;5.718;2023-07-31T12:26:54;4.03;;;1.50;;
48052;SDS011;33824;51.600;5.718;2023-07-31T12:29:20;4.18;;;1.80;;
48052;SDS011;33824;51.600;5.718;2023-07-31T12:31:46;2.83;;;1.20;;
48052;SDS011;33824;51.600;5.718;2023-07-31T12:34:15;5.88;;;1.35;;
48052;SDS011;33824;51.600;5.718;2023-07-31T12:36:43;3.92;;;1.73;;
48052;SDS011;33824;51.600;5.718;2023-07-31T12:39:09;4.50;;;1.35;;
48052;SDS011;33824;51.600;5.718;2023-07-31T12:41:35;3.75;;;1.65;;
48052;SDS011;33824;51.600;5.718;2023-07-31T12:44:00;5.28;;;1.50;;
48052;SDS011;33824;51.600;5.718;2023-07-31T12:46:26;6.22;;;1.70;;
48052;SDS011;33824;51.600;5.718;2023-07-31T12:48:51;3.17;;;1.70;;
48052;SDS011;33824;51.600;5.718;2023-07-31T12:51:17;2.53;;;1.45;;
48052;SDS011;33824;51.600;5.718;2023-07-31T12:53:43;6.53;;;1.70;;
48052;SDS011;33824;51.600;5.718;2023-07-31T12:56:09;3.90;;;1.85;;
48052;SDS011;33824;51.600;5.718;2023-07-31T12:58:34;5.10;;;1.88;;
48052;SDS011;33824;51.600;5.718;2023-07-31T13:01:00;3.95;;;1.95;;
48052;SDS011;33824;51.600;5.718;2023-07-31T13:03:27;5.47;;;2.13;;
48052;SDS011;33824;51.600;5.718;2023-07-31T13:05:52;3.38;;;1.90;;
48052;SDS011;33824;51.600;5.718;2023-07-31T13:08:18;5.40;;;1.88;;
48052;SDS011;33824;51.600;5.718;2023-07-31T13:10:43;4.05;;;2.00;;
48052;SDS011;33824;51.600;5.718;2023-07-31T13:13:09;7.10;;;2.00;;
48052;SDS011;33824;51.600;5.718;2023-07-31T13:15:35;4.10;;;1.70;;
48052;SDS011;33824;51.600;5.718;2023-07-31T13:18:01;3.10;;;2.00;;
48052;SDS011;33824;51.600;5.718;2023-07-31T13:20:26;12.07;;;2.58;;
48052;SDS011;33824;51.600;5.718;2023-07-31T13:22:52;7.35;;;2.20;;
48052;SDS011;33824;51.600;5.718;2023-07-31T13:25:17;3.90;;;2.22;;
48052;SDS011;33824;51.600;5.718;2023-07-31T13:27:43;7.00;;;2.33;;
48052;SDS011;33824;51.600;5.718;2023-07-31T13:30:09;5.85;;;2.75;;
48052;SDS011;33824;51.600;5.718;2023-07-31T13:32:34;7.75;;;3.20;;
48052;SDS011;33824;51.600;5.718;2023-07-31T13:35:05;8.82;;;2.90;;
48052;SDS011;33824;51.600;5.718;2023-07-31T13:37:33;5.93;;;2.67;;
48052;SDS011;33824;51.600;5.718;2023-07-31T13:40:00;8.85;;;2.95;;
48052;SDS011;33824;51.600;5.718;2023-07-31T13:42:26;6.68;;;2.50;;
48052;SDS011;33824;51.600;5.718;2023-07-31T13:44:53;11.88;;;3.08;;
48052;SDS011;33824;51.600;5.718;2023-07-31T13:47:21;8.10;;;2.45;;
48052;SDS011;33824;51.600;5.718;2023-07-31T13:49:46;8.65;;;2.58;;
48052;SDS011;33824;51.600;5.718;2023-07-31T13:52:13;6.45;;;3.05;;
48052;SDS011;33824;51.600;5.718;2023-07-31T13:54:38;8.52;;;2.45;;
48052;SDS011;33824;51.600;5.718;2023-07-31T13:57:04;14.10;;;2.88;;
48052;SDS011;33824;51.600;5.718;2023-07-31T13:59:30;9.15;;;3.38;;
48052;SDS011;33824;51.600;5.718;2023-07-31T14:01:55;5.78;;;2.50;;
48052;SDS011;33824;51.600;5.718;2023-07-31T14:04:21;7.30;;;2.55;;
48052;SDS011;33824;51.600;5.718;2023-07-31T14:06:46;5.00;;;2.25;;
48052;SDS011;33824;51.600;5.718;2023-07-31T14:09:13;6.63;;;3.15;;
48052;SDS011;33824;51.600;5.718;2023-07-31T14:11:39;9.10;;;3.05;;
48052;SDS011;33824;51.600;5.718;2023-07-31T14:14:05;16.58;;;3.60;;
48052;SDS011;33824;51.600;5.718;2023-07-31T14:16:30;6.68;;;2.95;;
48052;SDS011;33824;51.600;5.718;2023-07-31T14:18:56;7.78;;;3.78;;
48052;SDS011;33824;51.600;5.718;2023-07-31T14:21:24;6.50;;;2.92;;
48052;SDS011;33824;51.600;5.718;2023-07-31T14:23:51;8.48;;;3.83;;
48052;SDS011;33824;51.600;5.718;2023-07-31T14:26:16;14.90;;;3.88;;
48052;SDS011;33824;51.600;5.718;2023-07-31T14:28:42;9.73;;;3.60;;
48052;SDS011;33824;51.600;5.718;2023-07-31T14:31:07;9.90;;;3.50;;
48052;SDS011;33824;51.600;5.718;2023-07-31T14:33:33;10.98;;;3.88;;
48052;SDS011;33824;51.600;5.718;2023-07-31T14:35:58;10.45;;;3.78;;
48052;SDS011;33824;51.600;5.718;2023-07-31T14:38:24;8.40;;;4.00;;
48052;SDS011;33824;51.600;5.718;2023-07-31T14:40:49;9.57;;;3.50;;
48052;SDS011;33824;51.600;5.718;2023-07-31T14:43:16;14.95;;;4.32;;
48052;SDS011;33824;51.600;5.718;2023-07-31T14:45:41;9.35;;;3.15;;
48052;SDS011;33824;51.600;5.718;2023-07-31T14:48:07;7.85;;;3.17;;